Time;durP1;ratioP1;P1;durP2;ratioP2;P2;SDS_P1;SDS_P2;PMS_P1;PMS_P2;Temp;Humidity;BMP_temperature;BMP_pressure;BME280_temperature;BME280_humidity;BME280_pressure;Samples;Min_cycle;Max_cycle;Signal;HPM_P1;HPM_P2
2022/05/29 00:00:20;;;;;;;0.57;0.57;;;;;;;13.72;44.21;101177.16;5139278;28;20038;-76
2022/05/29 00:02:51;;;;;;;0.30;0.30;;;;;;;13.76;43.72;101166.44;5210353;22;20436;-79
2022/05/29 00:05:21;;;;;;;0.45;0.45;;;;;;;13.68;43.81;101176.38;5179842;28;20056;-79
2022/05/29 00:07:52;;;;;;;1.45;0.50;;;;;;;13.66;43.89;101170.31;5192892;28;20036;-81
2022/05/29 00:10:22;;;;;;;0.40;0.40;;;;;;;13.65;44.03;101172.06;5220146;28;20043;-79
2022/05/29 00:12:53;;;;;;;0.52;0.52;;;;;;;13.58;43.61;101167.91;5223240;28;20033;-79
2022/05/29 00:15:23;;;;;;;0.40;0.40;;;;;;;13.56;43.93;101166.22;5187198;28;20128;-80
2022/05/29 00:17:54;;;;;;;0.30;0.30;;;;;;;13.53;43.95;101162.78;5203191;28;20528;-80
2022/05/29 00:20:24;;;;;;;0.20;0.20;;;;;;;13.48;43.95;101159.44;5205938;28;20048;-78
2022/05/29 00:22:55;;;;;;;0.43;0.40;;;;;;;13.48;43.95;101155.94;5217842;28;20035;-79
2022/05/29 00:25:25;;;;;;;0.30;0.30;;;;;;;13.47;44.33;101149.81;5181643;28;20052;-80
2022/05/29 00:27:55;;;;;;;0.70;0.70;;;;;;;13.47;44.19;101149.81;5187524;28;20603;-79
2022/05/29 00:30:26;;;;;;;0.30;0.30;;;;;;;13.40;44.24;101156.19;5189975;28;20037;-80
2022/05/29 00:32:56;;;;;;;1.85;0.75;;;;;;;13.38;45.25;101155.34;5202991;28;20052;-79
2022/05/29 00:35:28;;;;;;;1.05;1.05;;;;;;;13.39;45.13;101146.56;5208682;28;20051;-79
2022/05/29 00:37:59;;;;;;;0.30;0.30;;;;;;;13.32;44.76;101145.84;5204285;28;20024;-80
2022/05/29 00:40:51;;;;;;;0.65;0.65;;;;;;;13.28;44.68;101148.63;5209347;28;20060;-79
2022/05/29 00:43:22;;;;;;;0.20;0.20;;;;;;;13.26;45.62;101140.78;5190051;28;20341;-79
2022/05/29 00:45:58;;;;;;;0.60;0.60;;;;;;;13.22;45.26;101149.69;5206984;28;20480;-79
2022/05/29 00:48:28;;;;;;;0.30;0.30;;;;;;;13.25;45.33;101154.00;5223483;28;20527;-78
2022/05/29 00:51:04;;;;;;;0.30;0.30;;;;;;;13.19;45.13;101150.63;5226833;28;20370;-79
2022/05/29 00:53:35;;;;;;;0.30;0.30;;;;;;;13.11;45.19;101143.91;5210731;28;20017;-79
2022/05/29 00:56:10;;;;;;;0.30;0.30;;;;;;;13.11;45.22;101141.25;5161844;28;20109;-79
2022/05/29 00:58:41;;;;;;;0.75;0.73;;;;;;;13.10;45.54;101139.53;5207448;28;20043;-79
2022/05/29 01:01:12;;;;;;;0.30;0.30;;;;;;;13.04;45.00;101141.47;5208265;28;20172;-79
2022/05/29 01:03:42;;;;;;;0.60;0.60;;;;;;;13.04;45.71;101143.22;5175032;28;20482;-79
2022/05/29 01:06:13;;;;;;;0.20;0.20;;;;;;;12.99;45.44;101137.22;5194242;28;20113;-79
2022/05/29 01:08:43;;;;;;;0.30;0.30;;;;;;;12.95;45.69;101136.47;5232326;28;20047;-79
2022/05/29 01:11:23;;;;;;;0.32;0.32;;;;;;;12.88;45.70;101125.25;5191397;28;20037;-80
2022/05/29 01:14:11;;;;;;;0.40;0.40;;;;;;;12.87;46.00;101123.50;5207300;28;20499;-79
2022/05/29 01:17:07;;;;;;;1.00;0.95;;;;;;;12.85;46.15;101116.56;5175139;28;20476;-79
2022/05/29 01:20:02;;;;;;;11.68;1.80;;;;;;;12.79;46.60;101114.13;5187672;28;20045;-79
2022/05/29 01:22:51;;;;;;;0.35;0.35;;;;;;;12.79;46.13;101119.41;5185979;28;20438;-79
2022/05/29 01:25:28;;;;;;;0.30;0.30;;;;;;;12.75;46.17;101118.63;5208173;28;20087;-79
2022/05/29 01:28:10;;;;;;;0.40;0.40;;;;;;;12.70;46.43;101115.25;5211651;28;20039;-78
2022/05/29 01:30:58;;;;;;;0.30;0.30;;;;;;;12.64;46.34;101118.97;5180854;28;20064;-79
2022/05/29 01:33:36;;;;;;;0.30;0.30;;;;;;;12.60;46.23;101117.31;5208116;28;20418;-79
2022/05/29 01:36:50;;;;;;;1.65;1.15;;;;;;;12.56;46.55;101113.91;5226495;28;20036;-79
2022/05/29 01:40:02;;;;;;;1.48;1.42;;;;;;;12.53;46.58;101113.97;5184664;28;20478;-80
2022/05/29 01:42:46;;;;;;;0.20;0.20;;;;;;;12.47;46.08;101114.16;5217744;28;20033;-79
2022/05/29 01:45:21;;;;;;;0.20;0.20;;;;;;;12.43;46.35;101108.13;5206951;28;20272;-79
2022/05/29 01:48:15;;;;;;;0.35;0.35;;;;;;;12.43;46.53;101113.41;5223085;28;20413;-81
2022/05/29 01:50:55;;;;;;;0.43;0.43;;;;;;;12.43;47.15;101107.28;5207701;28;20091;-79
2022/05/29 01:53:31;;;;;;;0.93;0.93;;;;;;;12.37;47.00;101110.06;5208603;28;20354;-79
2022/05/29 01:56:10;;;;;;;1.05;0.95;;;;;;;12.32;46.63;101104.94;5184020;28;20522;-79
2022/05/29 01:58:49;;;;;;;0.40;0.40;;;;;;;12.33;47.56;101103.19;5208841;28;20033;-79
2022/05/29 02:01:23;;;;;;;5.28;1.40;;;;;;;12.31;47.36;101102.34;5204987;28;20041;-79
2022/05/29 02:03:56;;;;;;;0.30;0.30;;;;;;;12.26;47.06;101105.09;5207635;28;20035;-79
2022/05/29 02:09:33;;;;;;;0.43;0.43;;;;;;;12.23;47.67;101098.16;5207720;28;20111;-79
2022/05/29 02:12:13;;;;;;;0.75;0.75;;;;;;;12.19;47.38;101093.03;5207338;28;20049;-79
2022/05/29 02:15:04;;;;;;;0.43;0.43;;;;;;;12.18;47.16;101093.94;5189735;28;20118;-78
2022/05/29 02:17:40;;;;;;;9.90;1.42;;;;;;;12.11;47.06;101093.22;5206349;28;20489;-79
2022/05/29 02:20:17;;;;;;;0.30;0.30;;;;;;;12.13;49.08;101094.06;5190753;28;20055;-79
2022/05/29 02:22:52;;;;;;;0.60;0.60;;;;;;;12.11;48.09;101087.97;5225990;28;20033;-80
2022/05/29 02:25:25;;;;;;;5.57;0.90;;;;;;;12.03;48.94;101084.69;5212967;28;20522;-79
2022/05/29 02:28:00;;;;;;;;;;;;;;;12.05;47.90;101081.13;5197407;28;20047;-79
2022/05/29 02:30:39;;;;;;;0.40;0.40;;;;;;;11.99;47.60;101080.44;5223385;28;19922;-80
2022/05/29 02:33:16;;;;;;;1.65;1.48;;;;;;;11.98;48.20;101082.22;5206819;28;20025;-80
2022/05/29 02:36:23;;;;;;;0.63;0.63;;;;;;;11.98;47.77;101082.22;5207186;28;20039;-79
2022/05/29 02:39:32;;;;;;;0.60;0.60;;;;;;;11.98;48.18;101083.97;5213304;28;20067;-79
2022/05/29 02:42:21;;;;;;;0.40;0.40;;;;;;;12.00;49.88;101067.22;5206078;28;20505;-79
2022/05/29 02:45:20;;;;;;;0.50;0.50;;;;;;;11.92;48.15;101063.91;5225333;28;20096;-79
2022/05/29 02:48:12;;;;;;;0.60;0.60;;;;;;;11.86;48.61;101074.59;5204718;28;20037;-80
2022/05/29 02:51:01;;;;;;;0.50;0.50;;;;;;;11.89;47.92;101070.13;5205005;28;20476;-79
2022/05/29 02:53:33;;;;;;;0.40;0.40;;;;;;;11.93;49.23;101061.28;5192252;28;20029;-79
2022/05/29 02:56:05;;;;;;;5.18;2.05;;;;;;;11.92;48.86;101070.06;5197345;28;20497;-79
2022/05/29 02:58:38;;;;;;;0.38;0.38;;;;;;;11.94;51.93;101073.47;5205837;28;20500;-80
2022/05/29 03:01:20;;;;;;;0.28;0.28;;;;;;;11.86;50.08;101067.56;5205201;28;20033;-79
2022/05/29 03:04:07;;;;;;;0.73;0.73;;;;;;;11.85;51.20;101063.25;5205660;28;20566;-79
2022/05/29 03:07:24;;;;;;;0.30;0.30;;;;;;;11.82;51.15;101065.94;5225732;28;20061;-79
2022/05/29 03:10:26;;;;;;;0.70;0.70;;;;;;;11.80;51.92;101062.50;5175492;28;20063;-79
2022/05/29 03:13:13;;;;;;;0.30;0.30;;;;;;;11.70;52.10;101066.25;5204264;28;20025;-78
2022/05/29 03:16:09;;;;;;;1.85;1.42;;;;;;;11.80;51.57;101065.13;5220503;28;20432;-79
2022/05/29 03:18:56;;;;;;;0.75;0.75;;;;;;;11.68;52.23;101062.81;5202870;28;20039;-78
2022/05/29 03:21:40;;;;;;;0.40;0.40;;;;;;;11.57;54.95;101063.97;5177772;28;20072;-79
2022/05/29 03:24:23;;;;;;;0.25;0.25;;;;;;;11.54;54.81;101066.66;5205339;28;20053;-78
2022/05/29 03:27:19;;;;;;;0.30;0.30;;;;;;;11.53;55.72;101061.44;5189039;28;20082;-79
2022/05/29 03:30:13;;;;;;;0.30;0.30;;;;;;;11.54;56.35;101074.53;5188130;28;20139;-78
2022/05/29 03:32:44;;;;;;;0.30;0.30;;;;;;;11.51;53.34;101074.63;5206844;28;20041;-79
2022/05/29 03:35:31;;;;;;;0.20;0.20;;;;;;;11.46;54.45;101071.25;5204111;28;20416;-79
2022/05/29 03:38:03;;;;;;;0.40;0.40;;;;;;;11.53;53.71;101067.56;5194910;28;20036;-80
2022/05/29 03:40:34;;;;;;;1.20;1.20;;;;;;;11.49;56.34;101066.78;5220656;28;20656;-78
2022/05/29 03:43:05;;;;;;;1.75;1.65;;;;;;;11.48;54.74;101066.81;5222376;28;20112;-79
2022/05/29 03:45:37;;;;;;;0.30;0.30;;;;;;;11.49;53.27;101064.16;5202891;28;20083;-79
2022/05/29 03:48:07;;;;;;;0.30;0.30;;;;;;;11.57;54.07;101069.22;5203262;28;20477;-78
2022/05/29 03:50:38;;;;;;;0.73;0.73;;;;;;;11.61;53.64;101062.97;5188357;28;20416;-78
2022/05/29 03:53:08;;;;;;;0.30;0.30;;;;;;;11.60;56.74;101058.63;5207177;28;20017;-79
2022/05/29 03:55:39;;;;;;;0.98;0.60;;;;;;;11.59;53.04;101056.91;5206112;28;20136;-79
2022/05/29 03:58:09;;;;;;;6.03;0.70;;;;;;;11.64;53.54;101055.00;5200567;28;20033;-79
2022/05/29 04:00:40;;;;;;;0.93;0.93;;;;;;;11.65;52.76;101054.13;5206691;28;20629;-78
2022/05/29 04:03:10;;;;;;;2.92;1.15;;;;;;;11.66;52.94;101057.59;5187616;28;20067;-79
2022/05/29 04:05:40;;;;;;;0.80;0.80;;;;;;;11.46;57.77;101050.22;5190716;28;20451;-79
2022/05/29 04:13:50;;;;;;;0.30;0.30;;;;;;;11.70;54.05;101050.47;5196575;28;20032;-79
2022/05/29 04:16:21;;;;;;;0.93;0.93;;;;;;;11.71;54.66;101039.94;5219274;28;20535;-80
2022/05/29 04:18:51;;;;;;;0.75;0.75;;;;;;;11.76;53.51;101038.03;5202952;28;20039;-79
2022/05/29 04:21:22;;;;;;;0.20;0.20;;;;;;;11.78;53.41;101035.38;5199770;28;20350;-79
2022/05/29 04:23:52;;;;;;;0.30;0.30;;;;;;;11.76;54.42;101042.47;5204078;28;20412;-80
2022/05/29 04:26:23;;;;;;;0.30;0.30;;;;;;;11.80;53.61;101036.19;5185988;28;20133;-79
2022/05/29 04:28:53;;;;;;;0.20;0.20;;;;;;;11.82;53.32;101039.66;5217743;28;20416;-79
2022/05/29 04:31:23;;;;;;;0.35;0.35;;;;;;;11.84;53.34;101029.09;5220767;28;20037;-79
2022/05/29 04:33:54;;;;;;;0.30;0.30;;;;;;;11.83;52.95;101028.25;5202870;28;20029;-79
2022/05/29 04:36:25;;;;;;;0.47;0.47;;;;;;;11.87;53.65;101029.88;5219479;28;20049;-79
2022/05/29 04:38:57;;;;;;;0.50;0.50;;;;;;;11.89;52.85;101020.16;5208736;28;20031;-78
2022/05/29 04:41:27;;;;;;;0.60;0.60;;;;;;;11.89;52.95;101019.31;5185947;28;20095;-79
2022/05/29 04:43:57;;;;;;;6.18;1.10;;;;;;;11.91;52.92;101021.00;5200829;28;20144;-78
2022/05/29 04:46:28;;;;;;;0.40;0.40;;;;;;;11.95;53.36;101022.63;5205706;28;20040;-79
2022/05/29 04:48:58;;;;;;;1.05;0.93;;;;;;;11.95;53.12;101021.78;5183041;28;20047;-79
2022/05/29 04:51:29;;;;;;;0.52;0.52;;;;;;;11.97;53.15;101020.00;5205020;28;20187;-79
2022/05/29 04:54:00;;;;;;;1.20;1.20;;;;;;;12.00;53.18;101016.41;5186888;28;20124;-79
2022/05/29 04:56:31;;;;;;;0.50;0.50;;;;;;;11.92;53.45;101016.59;5219346;28;20175;-79
2022/05/29 04:59:01;;;;;;;0.52;0.52;;;;;;;11.96;53.12;101023.50;5191372;28;20096;-79
2022/05/29 05:01:32;;;;;;;0.20;0.20;;;;;;;12.05;53.67;101022.41;5196123;28;20040;-79
2022/05/29 05:04:02;;;;;;;1.85;1.00;;;;;;;12.04;53.27;101018.91;5185613;28;20060;-79
2022/05/29 05:06:33;;;;;;;0.70;0.70;;;;;;;11.94;54.89;101018.25;5201821;28;20060;-78
2022/05/29 05:09:04;;;;;;;0.30;0.30;;;;;;;12.00;54.83;101011.16;5192161;28;20051;-78
2022/05/29 05:11:34;;;;;;;0.68;0.68;;;;;;;12.04;54.45;101004.88;5193662;28;20044;-79
2022/05/29 05:14:05;;;;;;;0.30;0.30;;;;;;;12.03;55.27;101004.03;5185848;28;20033;-79
2022/05/29 05:16:35;;;;;;;0.63;0.63;;;;;;;11.87;57.96;101006.19;5185130;28;20737;-79
2022/05/29 05:19:06;;;;;;;0.40;0.40;;;;;;;12.01;55.18;101007.63;5221845;28;20511;-79
2022/05/29 05:21:36;;;;;;;0.30;0.30;;;;;;;12.07;54.46;101000.41;5196055;28;20038;-79
2022/05/29 05:24:07;;;;;;;2.17;0.82;;;;;;;11.98;55.54;101005.06;5219818;28;20504;-79
2022/05/29 05:26:38;;;;;;;0.50;0.50;;;;;;;12.04;54.29;100999.63;5205289;28;20044;-79
2022/05/29 05:29:08;;;;;;;0.32;0.32;;;;;;;12.08;55.17;101012.66;5210312;28;20021;-79
2022/05/29 05:31:39;;;;;;;0.40;0.40;;;;;;;12.07;55.18;101002.19;5225476;28;21078;-79
2022/05/29 05:34:09;;;;;;;1.75;1.20;;;;;;;12.12;55.97;100998.53;5186360;28;20052;-79
2022/05/29 05:36:40;;;;;;;0.35;0.35;;;;;;;12.11;54.22;101009.94;5212538;28;20529;-79
2022/05/29 05:39:10;;;;;;;1.55;0.85;;;;;;;12.15;55.41;100997.56;5225906;28;20074;-80
2022/05/29 05:41:41;;;;;;;0.43;0.43;;;;;;;12.14;54.41;100998.47;5205767;28;20466;-80
2022/05/29 05:44:12;;;;;;;0.82;0.82;;;;;;;12.17;56.15;100997.50;5173424;28;20028;-79
2022/05/29 05:46:47;;;;;;;0.32;0.32;;;;;;;12.21;55.00;100997.38;5186577;28;20077;-79
2022/05/29 05:49:19;;;;;;;0.30;0.30;;;;;;;12.18;54.92;100999.25;5184098;28;20066;-81
2022/05/29 05:51:51;;;;;;;0.30;0.30;;;;;;;12.17;55.24;100994.88;5185038;28;20115;-81
2022/05/29 05:54:22;;;;;;;0.40;0.40;;;;;;;12.24;55.68;100992.03;5192095;28;20021;-81
2022/05/29 05:56:52;;;;;;;0.65;0.65;;;;;;;12.32;54.45;101004.94;5209895;28;20275;-79
2022/05/29 05:59:23;;;;;;;1.00;1.00;;;;;;;12.33;55.33;101003.19;5184718;28;20040;-79
2022/05/29 06:01:53;;;;;;;0.30;0.30;;;;;;;12.26;56.72;101000.75;5203329;28;20436;-79
2022/05/29 06:04:27;;;;;;;1.25;1.25;;;;;;;12.32;56.18;101009.34;5200119;28;20506;-79
2022/05/29 06:06:57;;;;;;;0.75;0.75;;;;;;;12.35;55.30;100998.75;5201212;28;20045;-79
2022/05/29 06:09:49;;;;;;;0.30;0.30;;;;;;;12.39;55.17;101001.25;5193330;23;20045;-84
2022/05/29 06:13:14;;;;;;;0.60;0.60;;;;;;;12.42;55.28;100997.66;5181208;28;20048;-82
2022/05/29 06:15:46;;;;;;;0.55;0.55;;;;;;;12.47;55.72;100998.38;5167485;28;20068;-82
2022/05/29 06:18:21;;;;;;;0.57;0.57;;;;;;;12.53;55.06;101000.81;5175761;28;20030;-86
2022/05/29 06:21:04;;;;;;;0.60;0.60;;;;;;;12.52;55.41;100999.06;5163803;28;20645;-85
2022/05/29 06:23:40;;;;;;;2.33;1.73;;;;;;;12.59;54.78;100995.38;5153636;28;20396;-81
2022/05/29 06:26:12;;;;;;;0.50;0.50;;;;;;;12.56;55.87;100998.09;5160618;28;20128;-79
2022/05/29 06:28:42;;;;;;;0.82;0.82;;;;;;;12.66;54.88;100998.66;5181234;28;20025;-78
2022/05/29 06:31:13;;;;;;;0.30;0.30;;;;;;;12.73;55.02;101000.19;5189807;28;20033;-78
2022/05/29 06:33:44;;;;;;;0.60;0.60;;;;;;;12.72;55.78;101001.13;5161366;28;20397;-77
2022/05/29 06:36:20;;;;;;;0.30;0.30;;;;;;;12.74;56.99;101004.53;5171860;28;20153;-79
2022/05/29 06:38:53;;;;;;;0.30;0.30;;;;;;;12.60;58.07;101004.13;5163096;28;20030;-79
2022/05/29 06:41:25;;;;;;;0.43;0.43;;;;;;;12.70;55.73;101004.69;5137801;28;20046;-79
2022/05/29 06:43:56;;;;;;;0.52;0.52;;;;;;;12.78;55.29;101000.03;5155876;28;20450;-78
2022/05/29 06:46:27;;;;;;;0.43;0.43;;;;;;;12.73;56.02;100994.91;5157093;28;20125;-78
2022/05/29 06:48:57;;;;;;;0.30;0.30;;;;;;;12.53;60.58;100997.31;5174798;28;20045;-78
2022/05/29 06:51:28;;;;;;;0.60;0.60;;;;;;;12.62;57.15;101001.44;5171378;28;20125;-79
2022/05/29 06:54:11;;;;;;;0.60;0.60;;;;;;;12.66;57.52;100992.53;5176375;28;20056;-81
2022/05/29 06:56:44;;;;;;;0.30;0.30;;;;;;;12.54;59.81;101005.16;5155906;28;20075;-81
2022/05/29 06:59:15;;;;;;;0.50;0.50;;;;;;;12.61;58.32;100992.69;5180505;28;20376;-80
2022/05/29 07:07:28;;;;;;;0.60;0.60;;;;;;;12.85;57.17;100993.66;5164430;28;20017;-78
2022/05/29 07:09:59;;;;;;;0.32;0.32;;;;;;;12.86;56.96;100998.03;5141357;28;20045;-79
2022/05/29 07:12:31;;;;;;;0.30;0.30;;;;;;;12.89;57.09;100997.09;5171021;28;20030;-79
2022/05/29 07:15:07;;;;;;;0.30;0.30;;;;;;;12.94;57.78;100999.53;5152216;28;20037;-80
2022/05/29 07:17:38;;;;;;;0.47;0.47;;;;;;;12.91;57.86;100995.25;5166900;28;20025;-79
2022/05/29 07:20:09;;;;;;;0.50;0.50;;;;;;;12.96;57.14;100995.09;5144709;28;20046;-79
2022/05/29 07:22:42;;;;;;;0.30;0.30;;;;;;;12.89;57.94;101000.56;5161685;28;20065;-78
2022/05/29 07:25:13;;;;;;;0.40;0.40;;;;;;;12.93;58.06;100996.06;5163667;28;20488;-79
2022/05/29 07:27:43;;;;;;;0.40;0.40;;;;;;;12.93;58.39;100988.16;5170076;28;20064;-79
2022/05/29 07:30:14;;;;;;;0.30;0.30;;;;;;;13.01;58.27;100998.44;5171817;28;20042;-79
2022/05/29 07:32:44;;;;;;;0.45;0.45;;;;;;;13.04;57.48;100993.94;5139202;28;20052;-78
2022/05/29 07:35:17;;;;;;;0.60;0.60;;;;;;;13.11;56.71;100981.41;5147017;28;20113;-81
2022/05/29 07:37:47;;;;;;;0.30;0.30;;;;;;;13.13;57.05;100987.50;5178877;28;20032;-80
2022/05/29 07:40:18;;;;;;;0.68;0.68;;;;;;;13.15;56.22;100985.69;5188631;28;20038;-80
2022/05/29 07:45:39;;;;;;;12.93;1.33;;;;;;;13.06;58.48;100996.53;5165433;28;20504;-79
2022/05/29 07:48:10;;;;;;;0.50;0.50;;;;;;;13.23;57.52;100993.31;5140382;28;20034;-79
2022/05/29 07:50:41;;;;;;;0.85;0.73;;;;;;;13.25;56.57;100993.28;5164206;28;20060;-77
2022/05/29 07:53:11;;;;;;;0.63;0.63;;;;;;;13.23;57.67;100994.19;5160063;28;20038;-77
2022/05/29 07:55:43;;;;;;;0.70;0.70;;;;;;;13.20;57.51;100989.00;5166286;28;20033;-79
2022/05/29 07:58:14;;;;;;;0.40;0.40;;;;;;;13.33;56.94;100999.16;5155463;28;20099;-79
2022/05/29 08:00:45;;;;;;;0.43;0.43;;;;;;;13.35;57.06;100992.03;5173011;28;20034;-79
2022/05/29 08:03:16;;;;;;;0.40;0.40;;;;;;;13.38;56.64;100991.94;5159159;28;20026;-79
2022/05/29 08:05:46;;;;;;;0.88;0.88;;;;;;;13.35;56.94;100998.16;5152131;28;20042;-79
2022/05/29 08:08:18;;;;;;;0.55;0.55;;;;;;;13.47;56.42;100986.38;5146995;28;20760;-78
2022/05/29 08:10:49;;;;;;;0.30;0.30;;;;;;;13.49;56.67;100989.81;5164859;28;20041;-79
2022/05/29 08:13:19;;;;;;;0.57;0.57;;;;;;;13.41;57.91;100983.97;5156633;28;20079;-78
2022/05/29 08:15:50;;;;;;;0.50;0.50;;;;;;;13.53;56.89;100988.78;5149507;28;20259;-78
2022/05/29 08:18:21;;;;;;;0.40;0.40;;;;;;;13.56;56.29;100979.06;5188673;28;20076;-79
2022/05/29 08:20:55;;;;;;;0.30;0.30;;;;;;;13.54;56.60;100981.75;5197314;28;20332;-77
2022/05/29 08:23:26;;;;;;;0.40;0.40;;;;;;;13.55;56.96;100986.13;5198746;28;20085;-78
2022/05/29 08:31:17;;;;;;;0.28;0.28;;;;;;;13.68;56.71;100968.94;5175665;28;20064;-79
2022/05/29 08:33:47;;;;;;;0.55;0.55;;;;;;;13.81;55.52;100968.47;5172393;28;20025;-79
2022/05/29 08:36:24;;;;;;;0.30;0.30;;;;;;;13.81;55.29;100969.34;5167272;28;20030;-79
2022/05/29 08:38:56;;;;;;;0.45;0.45;;;;;;;13.87;55.29;100956.84;5166914;28;20033;-78
2022/05/29 08:41:33;;;;;;;0.32;0.32;;;;;;;13.84;55.58;100957.81;5155006;28;20037;-79
2022/05/29 08:44:13;;;;;;;0.57;0.57;;;;;;;13.98;55.49;100959.94;5159281;28;20073;-79
2022/05/29 08:46:49;;;;;;;0.52;0.52;;;;;;;14.05;55.07;100950.88;5138512;28;20035;-79
2022/05/29 08:49:27;;;;;;;0.57;0.57;;;;;;;13.93;55.16;100948.69;5139522;28;20718;-79
2022/05/29 08:52:10;;;;;;;0.32;0.32;;;;;;;13.98;55.00;100944.13;5161497;28;20037;-79
2022/05/29 08:55:09;;;;;;;0.30;0.30;;;;;;;14.01;55.10;100944.88;5176441;28;20034;-79
2022/05/29 08:57:54;;;;;;;0.55;0.55;;;;;;;13.81;55.84;100942.97;5193911;28;20025;-78
2022/05/29 09:00:37;;;;;;;0.38;0.38;;;;;;;14.03;54.76;100942.16;5158101;28;20048;-78
2022/05/29 09:03:30;;;;;;;4.68;1.95;;;;;;;14.12;54.55;100939.19;5181237;28;20097;-79
2022/05/29 09:06:18;;;;;;;0.40;0.40;;;;;;;14.22;54.16;100939.66;5176776;28;20567;-79
2022/05/29 09:08:58;;;;;;;0.32;0.32;;;;;;;14.17;54.24;100934.56;5178741;28;20559;-81
2022/05/29 09:11:49;;;;;;;0.82;0.82;;;;;;;14.23;53.96;100940.53;5178753;28;20421;-80
2022/05/29 09:14:35;;;;;;;0.60;0.57;;;;;;;14.25;54.13;100939.56;5177238;28;20035;-82
2022/05/29 09:17:14;;;;;;;0.38;0.38;;;;;;;14.21;55.04;100934.47;5194696;28;20072;-81
2022/05/29 09:19:50;;;;;;;0.20;0.20;;;;;;;13.96;56.54;100935.41;5180541;28;20033;-79
2022/05/29 09:22:30;;;;;;;0.20;0.20;;;;;;;14.16;54.83;100934.63;5200175;28;20041;-80
2022/05/29 09:25:15;;;;;;;0.65;0.65;;;;;;;14.22;54.31;100934.38;5161867;28;20110;-80
2022/05/29 09:27:47;;;;;;;0.40;0.40;;;;;;;14.18;54.08;100930.16;5146817;28;20040;-78
2022/05/29 09:30:18;;;;;;;0.60;0.60;;;;;;;14.21;53.94;100929.19;5173915;28;20046;-79
2022/05/29 09:32:53;;;;;;;0.30;0.30;;;;;;;14.27;54.07;100919.25;5173676;28;20226;-80
2022/05/29 09:35:42;;;;;;;0.20;0.20;;;;;;;14.32;53.80;100927.84;5174082;28;20195;-81
2022/05/29 09:38:38;;;;;;;0.30;0.30;;;;;;;14.38;53.40;100921.47;5161022;28;20038;-79
2022/05/29 09:41:17;;;;;;;1.27;1.17;;;;;;;14.31;54.13;100925.28;5173258;28;20079;-79
2022/05/29 09:44:11;;;;;;;0.45;0.45;;;;;;;14.36;53.71;100923.28;5142543;28;20251;-80
2022/05/29 09:46:44;;;;;;;0.47;0.47;;;;;;;14.33;53.58;100920.78;5177431;28;20463;-81
2022/05/29 09:49:41;;;;;;;0.30;0.30;;;;;;;14.36;53.96;100925.94;5161938;28;20392;-79
2022/05/29 09:52:44;;;;;;;0.28;0.28;;;;;;;14.39;53.85;100919.66;5148666;28;20068;-80
2022/05/29 09:55:28;;;;;;;0.50;0.50;;;;;;;14.50;53.79;100913.97;5152886;28;20388;-78
2022/05/29 09:58:02;;;;;;;0.30;0.30;;;;;;;14.46;53.67;100911.47;5146962;28;20040;-79
2022/05/29 10:00:51;;;;;;;0.30;0.30;;;;;;;14.44;53.91;100920.38;5175980;28;20025;-82
2022/05/29 10:03:52;;;;;;;0.30;0.30;;;;;;;14.41;53.87;100910.78;5159016;28;20033;-80
2022/05/29 10:06:28;;;;;;;0.73;0.65;;;;;;;14.47;53.41;100922.84;5155684;28;20042;-80
2022/05/29 10:09:31;;;;;;;3.75;1.45;;;;;;;14.34;54.32;100935.69;5179276;28;20554;-81
2022/05/29 10:12:16;;;;;;;3.10;0.98;;;;;;;14.33;55.76;100939.28;5102107;28;20563;-80
2022/05/29 10:14:47;;;;;;;0.30;0.30;;;;;;;14.33;55.16;100934.00;5144301;28;20093;-80
2022/05/29 10:17:26;;;;;;;0.45;0.45;;;;;;;14.40;54.42;100929.31;5160267;28;20136;-81
2022/05/29 10:19:57;;;;;;;0.30;0.30;;;;;;;14.33;54.17;100926.06;5150981;28;20065;-79
2022/05/29 10:22:36;;;;;;;0.45;0.45;;;;;;;14.30;54.41;100926.19;5171084;28;20064;-80
2022/05/29 10:25:20;;;;;;;0.22;0.22;;;;;;;14.36;54.25;100925.09;5191797;28;20114;-79
2022/05/29 10:27:54;;;;;;;0.98;0.95;;;;;;;14.36;54.00;100923.28;5187569;28;20022;-81
2022/05/29 10:30:54;;;;;;;1.08;1.05;;;;;;;14.36;54.30;100918.00;5164766;28;20068;-78
2022/05/29 10:33:28;;;;;;;0.30;0.30;;;;;;;14.37;54.53;100924.16;5154926;28;20029;-80
2022/05/29 10:36:14;;;;;;;0.30;0.30;;;;;;;14.41;54.54;100918.72;5167943;28;20037;-81
2022/05/29 10:38:46;;;;;;;0.70;0.63;;;;;;;14.43;55.01;100916.84;5174170;28;20022;-79
2022/05/29 10:41:31;;;;;;;0.43;0.43;;;;;;;14.46;55.07;100919.38;5178590;28;20089;-79
2022/05/29 10:44:02;;;;;;;0.30;0.30;;;;;;;14.55;54.91;100917.28;5155806;28;20057;-78
2022/05/29 10:46:40;;;;;;;0.50;0.50;;;;;;;14.59;54.78;100922.38;5148789;28;20062;-78
2022/05/29 10:49:27;;;;;;;0.68;0.68;;;;;;;14.25;60.40;100917.59;5167037;28;20041;-79
2022/05/29 10:52:16;;;;;;;0.30;0.30;;;;;;;14.31;57.40;100909.44;5157647;28;20042;-78
2022/05/29 10:55:20;;;;;;;0.43;0.43;;;;;;;14.45;57.97;100914.16;5156096;28;20038;-77
2022/05/29 10:58:30;;;;;;;0.25;0.25;;;;;;;14.31;59.74;100907.63;5175929;28;20010;-79
2022/05/29 11:04:20;;;;;;;0.40;0.40;;;;;;;14.55;59.08;100906.72;5177025;28;20022;-79
2022/05/29 11:06:59;;;;;;;0.40;0.40;;;;;;;14.72;59.79;100913.97;5161004;28;20129;-78
2022/05/29 11:09:48;;;;;;;0.32;0.32;;;;;;;14.67;58.66;100921.25;5178005;28;20021;-81
2022/05/29 11:12:32;;;;;;;0.30;0.30;;;;;;;14.72;57.54;100906.03;5187734;28;20796;-81
2022/05/29 11:15:22;;;;;;;0.30;0.30;;;;;;;14.66;57.84;100901.91;5168083;28;20033;-79
2022/05/29 11:18:08;;;;;;;0.30;0.30;;;;;;;14.72;58.30;100898.13;5183684;28;20028;-78
2022/05/29 11:21:02;;;;;;;0.30;0.30;;;;;;;14.74;57.12;100902.44;5172581;28;20045;-79
2022/05/29 11:24:14;;;;;;;0.20;0.20;;;;;;;14.83;56.63;100893.25;5159325;28;20030;-81
2022/05/29 11:26:56;;;;;;;;;;;;;;;14.85;56.38;100885.25;5128812;28;20501;-82
2022/05/29 11:29:54;;;;;;;0.30;0.30;;;;;;;14.81;56.70;100881.06;5148610;28;19917;-82
2022/05/29 11:32:40;;;;;;;0.73;0.73;;;;;;;14.94;56.39;100876.94;5156950;28;20025;-82
2022/05/29 11:35:10;;;;;;;0.20;0.20;;;;;;;14.90;56.22;100878.03;5158069;28;20128;-78
2022/05/29 11:38:09;;;;;;;0.30;0.30;;;;;;;14.99;55.95;100875.00;5178660;28;20093;-79
2022/05/29 11:40:53;;;;;;;0.30;0.30;;;;;;;15.04;54.71;100873.00;5166313;28;20104;-82
2022/05/29 11:43:45;;;;;;;0.30;0.30;;;;;;;15.14;54.85;100864.66;5134722;28;20450;-82
2022/05/29 11:52:25;;;;;;;3.22;3.00;;;;;;;15.44;54.35;100843.94;5181088;28;20042;-83
2022/05/29 11:55:04;;;;;;;3.45;3.17;;;;;;;15.52;52.85;100846.22;5160990;28;20132;-81
2022/05/29 11:57:44;;;;;;;37.13;26.45;;;;;;;15.70;52.54;100848.03;5158447;28;20251;-81
2022/05/29 12:00:24;;;;;;;12.57;7.53;;;;;;;15.65;53.31;100844.75;5157836;28;20041;-82
2022/05/29 12:03:24;;;;;;;28.25;16.25;;;;;;;15.82;54.04;100832.50;5158928;28;20025;-83
2022/05/29 12:06:24;;;;;;;1.77;1.67;;;;;;;15.98;52.88;100833.53;5145694;28;20113;-82
2022/05/29 12:09:25;;;;;;;0.50;0.50;;;;;;;16.02;52.31;100831.59;5163139;28;20086;-80
2022/05/29 12:12:17;;;;;;;0.50;0.50;;;;;;;16.01;52.00;100836.00;5160066;28;20514;-79
2022/05/29 12:14:56;;;;;;;0.30;0.30;;;;;;;16.17;52.48;100833.50;5180503;28;20042;-78
2022/05/29 12:17:44;;;;;;;0.40;0.40;;;;;;;16.19;52.98;100833.41;5175943;28;20029;-78
2022/05/29 12:20:33;;;;;;;0.20;0.20;;;;;;;16.17;54.46;100833.50;5161246;28;20034;-78
2022/05/29 12:23:26;;;;;;;0.30;0.30;;;;;;;16.22;54.41;100825.31;5178472;28;20097;-78
2022/05/29 12:26:06;;;;;;;0.52;0.52;;;;;;;16.32;54.20;100825.72;5150395;28;20068;-78
2022/05/29 12:28:46;;;;;;;0.20;0.20;;;;;;;16.42;54.11;100815.50;5171025;28;20025;-80
2022/05/29 12:31:32;;;;;;;0.30;0.30;;;;;;;16.48;54.09;100815.22;5182728;28;20153;-77
2022/05/29 12:34:14;;;;;;;0.80;0.80;;;;;;;16.56;53.96;100813.06;5191420;28;20025;-81
2022/05/29 12:36:48;;;;;;;0.20;0.20;;;;;;;16.61;53.57;100811.00;5197742;28;20101;-77
2022/05/29 12:39:30;;;;;;;0.28;0.28;;;;;;;16.68;54.05;100809.75;5197836;28;20047;-77
2022/05/29 12:42:42;;;;;;;0.50;0.50;;;;;;;16.55;54.67;100816.63;5169033;28;20030;-79
2022/05/29 12:45:31;;;;;;;0.32;0.32;;;;;;;16.58;53.52;100816.44;5090449;28;20056;-79
2022/05/29 12:48:01;;;;;;;0.20;0.20;;;;;;;16.56;53.67;100822.78;5158935;28;20025;-80